createdAt,value
2022-11-17T00:02:09.056Z,9.00
2022-11-17T00:04:35.786Z,9.40
2022-11-17T00:07:02.444Z,9.60
2022-11-17T00:09:29.080Z,9.60
2022-11-17T00:11:55.701Z,9.60
2022-11-17T00:14:22.358Z,9.70
2022-11-17T00:16:49.027Z,9.50
2022-11-17T00:19:15.671Z,9.60
2022-11-17T00:21:42.312Z,9.50
2022-11-17T00:24:08.939Z,9.70
2022-11-17T00:26:35.614Z,9.80
2022-11-17T00:29:02.259Z,9.80
2022-11-17T00:31:28.875Z,9.80
2022-11-17T00:33:55.526Z,9.90
2022-11-17T00:36:22.195Z,10.10
2022-11-17T00:38:48.807Z,10.00
2022-11-17T00:41:15.468Z,9.80
2022-11-17T00:43:42.114Z,9.70
2022-11-17T00:46:08.779Z,9.40
2022-11-17T00:48:35.404Z,9.40
2022-11-17T00:51:02.076Z,9.40
2022-11-17T00:53:28.713Z,9.40
2022-11-17T00:55:55.392Z,9.40
2022-11-17T00:58:22.051Z,9.60
2022-11-17T01:00:48.835Z,9.90
2022-11-17T01:03:15.476Z,9.90
2022-11-17T01:05:42.115Z,9.90
2022-11-17T01:08:08.767Z,9.70
2022-11-17T01:10:35.509Z,9.50
2022-11-17T01:13:02.145Z,9.50
2022-11-17T01:15:28.768Z,9.60
2022-11-17T01:17:55.638Z,9.60
2022-11-17T01:20:22.359Z,9.70
2022-11-17T01:22:49.017Z,9.90
2022-11-17T01:25:15.695Z,10.00
2022-11-17T01:27:42.336Z,10.00
2022-11-17T01:30:09.018Z,9.80
2022-11-17T01:32:35.661Z,9.70
2022-11-17T01:35:02.325Z,9.60
2022-11-17T01:37:28.952Z,9.50
2022-11-17T01:39:55.611Z,9.50
2022-11-17T01:42:22.287Z,9.60
2022-11-17T01:44:48.915Z,9.50
2022-11-17T01:47:15.620Z,9.30
2022-11-17T01:49:42.235Z,9.00
2022-11-17T01:52:08.914Z,9.10
2022-11-17T01:54:35.548Z,9.20
2022-11-17T01:57:02.170Z,9.30
2022-11-17T01:59:28.848Z,9.40
2022-11-17T02:01:55.748Z,9.50
2022-11-17T02:04:22.664Z,9.70
2022-11-17T02:06:49.370Z,9.70
2022-11-17T02:09:16.063Z,9.60
2022-11-17T02:11:42.703Z,9.60
2022-11-17T02:14:09.367Z,9.60
2022-11-17T02:16:35.983Z,9.70
2022-11-17T02:19:02.665Z,9.80
2022-11-17T02:21:29.295Z,9.70
2022-11-17T02:23:55.955Z,9.70
2022-11-17T02:26:22.625Z,9.80
2022-11-17T02:28:49.305Z,9.60
2022-11-17T02:31:15.968Z,9.60
2022-11-17T02:33:42.599Z,9.50
2022-11-17T02:36:09.283Z,9.60
2022-11-17T02:38:35.917Z,9.50
2022-11-17T02:41:02.564Z,9.40
2022-11-17T02:43:29.249Z,9.30
2022-11-17T02:45:55.862Z,9.00
2022-11-17T02:48:22.511Z,9.20
2022-11-17T02:50:49.185Z,9.10
2022-11-17T02:53:15.827Z,9.00
2022-11-17T02:55:42.439Z,9.30
2022-11-17T02:58:09.131Z,9.30
2022-11-17T03:00:35.784Z,9.40
2022-11-17T03:03:02.450Z,9.30
2022-11-17T03:05:29.083Z,9.40
2022-11-17T03:07:55.738Z,9.40
2022-11-17T03:10:22.775Z,9.10
2022-11-17T03:12:49.489Z,9.40
2022-11-17T03:15:16.111Z,9.40
2022-11-17T03:17:42.752Z,9.50
2022-11-17T03:20:09.360Z,9.60
2022-11-17T03:22:35.966Z,9.40
2022-11-17T03:25:02.656Z,9.50
2022-11-17T03:27:29.295Z,9.60
2022-11-17T03:29:55.932Z,9.60
2022-11-17T03:32:22.582Z,9.50
2022-11-17T03:34:49.229Z,9.40
2022-11-17T03:37:15.891Z,9.40
2022-11-17T03:39:42.569Z,9.30
2022-11-17T03:42:09.217Z,9.30
2022-11-17T03:44:35.882Z,9.40
2022-11-17T03:47:02.714Z,9.50
2022-11-17T03:49:29.370Z,9.50
2022-11-17T03:51:56.047Z,9.60
2022-11-17T03:54:22.722Z,9.40
2022-11-17T03:56:49.357Z,9.50
2022-11-17T03:59:19.055Z,9.60
2022-11-17T04:01:45.800Z,9.50
2022-11-17T04:04:12.527Z,9.50
2022-11-17T04:06:39.195Z,9.30
2022-11-17T04:09:05.827Z,9.30
2022-11-17T04:11:32.472Z,9.30
2022-11-17T04:13:59.307Z,9.20
2022-11-17T04:16:25.980Z,9.20
2022-11-17T04:18:58.524Z,9.00
2022-11-17T04:21:25.443Z,8.90
2022-11-17T04:23:52.074Z,8.40
2022-11-17T04:26:18.748Z,8.60
2022-11-17T04:28:45.477Z,8.60
2022-11-17T04:31:12.110Z,8.50
2022-11-17T04:33:38.969Z,8.30
2022-11-17T04:36:05.653Z,8.40
2022-11-17T04:38:32.311Z,7.90
2022-11-17T04:40:58.967Z,8.10
2022-11-17T04:43:25.634Z,8.40
2022-11-17T04:45:52.267Z,8.50
2022-11-17T04:48:18.922Z,8.60
2022-11-17T04:50:45.945Z,8.40
2022-11-17T04:53:12.633Z,7.80
2022-11-17T04:55:39.280Z,7.80
2022-11-17T04:58:05.962Z,7.80
2022-11-17T05:00:32.613Z,8.00
2022-11-17T05:02:59.290Z,7.90
2022-11-17T05:05:25.994Z,7.70
2022-11-17T05:07:52.631Z,8.00
2022-11-17T05:10:19.280Z,8.10
2022-11-17T05:12:46.026Z,7.70
2022-11-17T05:15:12.679Z,8.00
2022-11-17T05:17:39.329Z,8.20
2022-11-17T05:20:06.061Z,8.50
2022-11-17T05:22:32.692Z,8.30
2022-11-17T05:24:59.381Z,8.30
2022-11-17T05:27:26.042Z,8.40
2022-11-17T05:29:52.649Z,8.20
2022-11-17T05:32:19.261Z,8.40
2022-11-17T05:34:46.008Z,8.10
2022-11-17T05:37:12.668Z,8.20
2022-11-17T05:39:39.314Z,8.30
2022-11-17T05:42:06.005Z,8.20
2022-11-17T05:44:32.647Z,8.40
2022-11-17T05:46:59.300Z,8.50
2022-11-17T05:49:26.014Z,8.10
2022-11-17T05:51:53.233Z,8.20
2022-11-17T05:54:20.058Z,8.30
2022-11-17T05:56:46.744Z,8.50
2022-11-17T05:59:13.386Z,8.50
2022-11-17T06:01:40.106Z,8.30
2022-11-17T06:04:06.709Z,8.10
2022-11-17T06:06:33.365Z,8.10
2022-11-17T06:09:00.048Z,8.30
2022-11-17T06:11:26.690Z,8.50
2022-11-17T06:13:53.348Z,8.40
2022-11-17T06:16:20.012Z,8.40
2022-11-17T06:18:46.681Z,8.50
2022-11-17T06:21:14.014Z,8.50
2022-11-17T06:23:40.692Z,8.50
2022-11-17T06:26:07.355Z,8.40
2022-11-17T06:28:34.048Z,7.90
2022-11-17T06:31:00.728Z,8.20
2022-11-17T06:33:27.374Z,8.20
2022-11-17T06:35:53.992Z,8.20
2022-11-17T06:38:20.655Z,8.20
2022-11-17T06:40:47.337Z,8.00
2022-11-17T06:43:14.001Z,8.20
2022-11-17T06:45:40.667Z,8.40
2022-11-17T06:48:07.317Z,8.30
2022-11-17T06:50:34.014Z,8.40
2022-11-17T06:53:00.669Z,8.80
2022-11-17T06:55:27.379Z,8.80
2022-11-17T06:57:54.065Z,8.80
2022-11-17T07:00:20.734Z,8.70
2022-11-17T07:02:47.446Z,8.70
2022-11-17T07:05:14.103Z,9.00
2022-11-17T07:07:40.769Z,9.30
2022-11-17T07:10:07.439Z,9.40
2022-11-17T07:12:34.151Z,9.40
2022-11-17T07:15:00.823Z,9.30
2022-11-17T07:17:27.543Z,9.20
2022-11-17T07:19:54.187Z,9.10
2022-11-17T07:22:20.844Z,8.90
2022-11-17T07:24:47.500Z,9.00
2022-11-17T07:27:14.188Z,9.40
2022-11-17T07:29:40.844Z,9.40
2022-11-17T07:32:07.514Z,9.30
2022-11-17T07:34:34.221Z,9.30
2022-11-17T07:37:00.893Z,9.50
2022-11-17T07:39:27.567Z,9.90
2022-11-17T07:41:54.211Z,9.90
2022-11-17T07:44:21.036Z,9.80
2022-11-17T07:46:47.745Z,9.90
2022-11-17T07:49:14.424Z,9.70
2022-11-17T07:51:41.125Z,9.90
2022-11-17T07:54:07.827Z,10.00
2022-11-17T07:56:34.476Z,10.00
2022-11-17T07:59:01.187Z,10.00
2022-11-17T08:01:27.938Z,10.10
2022-11-17T08:03:54.849Z,9.90
2022-11-17T08:06:21.626Z,9.40
2022-11-17T08:08:48.311Z,9.80
2022-11-17T08:11:14.975Z,10.00
2022-11-17T08:13:41.875Z,10.30
2022-11-17T08:16:08.507Z,10.30
2022-11-17T08:18:35.478Z,10.50
2022-11-17T08:21:02.457Z,10.60
2022-11-17T08:23:29.160Z,10.60
2022-11-17T08:25:55.800Z,10.30
2022-11-17T08:28:22.485Z,10.50
2022-11-17T08:30:49.206Z,10.50
2022-11-17T08:33:15.898Z,10.50
2022-11-17T08:35:42.530Z,10.60
2022-11-17T08:38:09.187Z,10.40
2022-11-17T08:40:35.852Z,10.40
2022-11-17T08:43:02.499Z,10.60
2022-11-17T08:45:29.160Z,10.70
2022-11-17T08:47:55.865Z,10.40
2022-11-17T08:50:22.772Z,10.70
2022-11-17T08:52:49.471Z,10.70
2022-11-17T08:55:16.185Z,11.00
2022-11-17T08:57:42.945Z,11.20
2022-11-17T09:00:09.629Z,11.00
2022-11-17T09:02:36.314Z,11.20
2022-11-17T09:05:03.054Z,11.00
2022-11-17T09:07:34.621Z,11.30
2022-11-17T09:10:01.644Z,11.40
2022-11-17T09:12:28.307Z,11.60
2022-11-17T09:14:54.920Z,11.40
2022-11-17T09:17:21.560Z,11.40
2022-11-17T09:19:48.268Z,11.50
2022-11-17T09:22:14.957Z,11.40
2022-11-17T09:24:41.611Z,11.30
2022-11-17T09:27:08.278Z,11.00
2022-11-17T09:29:35.263Z,10.80
2022-11-17T09:32:01.883Z,10.90
2022-11-17T09:34:28.571Z,11.30
2022-11-17T09:36:55.294Z,11.30
2022-11-17T09:39:21.970Z,11.20
2022-11-17T09:41:48.729Z,11.40
2022-11-17T09:44:15.456Z,11.40
2022-11-17T09:46:42.143Z,11.40
2022-11-17T09:49:08.850Z,11.20
2022-11-17T09:51:35.514Z,11.20
2022-11-17T09:54:02.244Z,11.00
2022-11-17T09:56:29.112Z,11.10
2022-11-17T09:58:55.766Z,11.00
2022-11-17T10:01:22.617Z,11.40
2022-11-17T10:03:49.491Z,11.50
2022-11-17T10:06:16.352Z,11.80
2022-11-17T10:08:43.054Z,11.60
2022-11-17T10:11:10.531Z,11.70
2022-11-17T10:13:37.990Z,11.70
2022-11-17T10:16:05.633Z,11.70
2022-11-17T10:18:37.706Z,12.10
2022-11-17T10:21:05.074Z,11.70
2022-11-17T10:23:31.772Z,11.40
2022-11-17T10:25:58.571Z,11.70
2022-11-17T10:28:25.481Z,11.90
2022-11-17T10:30:52.185Z,12.20
2022-11-17T10:33:18.991Z,12.50
2022-11-17T10:35:45.943Z,12.70
2022-11-17T10:38:12.668Z,12.60
2022-11-17T10:40:39.475Z,12.40
2022-11-17T10:43:06.342Z,12.20
2022-11-17T10:45:33.500Z,12.40
2022-11-17T10:48:00.345Z,12.60
2022-11-17T10:50:27.284Z,13.00
2022-11-17T10:52:54.409Z,13.20
2022-11-17T10:55:21.519Z,12.70
2022-11-17T10:57:48.212Z,12.80
2022-11-17T11:00:15.563Z,13.10
2022-11-17T11:02:42.299Z,13.10
2022-11-17T11:05:08.975Z,13.30
2022-11-17T11:07:36.096Z,13.30
2022-11-17T11:10:03.038Z,13.10
2022-11-17T11:12:30.200Z,12.90
2022-11-17T11:14:56.946Z,12.70
2022-11-17T11:17:23.804Z,12.70
2022-11-17T11:19:50.487Z,12.40
2022-11-17T11:22:21.239Z,12.40
2022-11-17T11:24:48.803Z,12.20
2022-11-17T11:27:15.716Z,11.90
2022-11-17T11:29:42.402Z,12.20
2022-11-17T11:32:09.387Z,12.40
2022-11-17T11:34:36.341Z,12.70
2022-11-17T11:37:03.291Z,12.80
2022-11-17T11:39:30.379Z,13.00
2022-11-17T11:41:57.365Z,12.80
2022-11-17T11:44:24.070Z,13.00
2022-11-17T11:46:50.938Z,13.20
2022-11-17T11:49:18.142Z,13.10
2022-11-17T11:51:45.526Z,12.70
2022-11-17T11:54:12.900Z,13.00
2022-11-17T11:56:39.948Z,13.00
2022-11-17T11:59:07.123Z,13.00
2022-11-17T12:01:34.115Z,13.30
2022-11-17T12:04:01.472Z,12.90
2022-11-17T12:06:28.419Z,12.60
2022-11-17T12:08:55.070Z,12.40
2022-11-17T12:11:21.914Z,12.70
2022-11-17T12:13:52.851Z,12.90
2022-11-17T12:16:21.150Z,13.50
2022-11-17T12:18:51.059Z,13.30
2022-11-17T12:21:17.886Z,13.50
2022-11-17T12:23:44.514Z,13.80
2022-11-17T12:26:11.140Z,13.90
2022-11-17T12:28:38.064Z,13.80
2022-11-17T12:31:09.699Z,14.30
2022-11-17T12:33:36.977Z,14.20
2022-11-17T12:36:03.680Z,13.60
2022-11-17T12:38:30.369Z,13.10
2022-11-17T12:40:57.079Z,13.60
2022-11-17T12:43:23.704Z,13.40
2022-11-17T12:45:50.390Z,13.20
2022-11-17T12:48:32.906Z,13.70
2022-11-17T12:51:04.902Z,13.70
2022-11-17T12:53:31.921Z,14.00
2022-11-17T12:55:58.556Z,13.90
2022-11-17T12:58:25.290Z,13.80
2022-11-17T13:00:52.083Z,14.00
2022-11-17T13:03:18.826Z,13.90
2022-11-17T13:05:45.483Z,14.10
2022-11-17T13:08:12.156Z,13.90
2022-11-17T13:10:38.856Z,13.10
2022-11-17T13:13:05.545Z,13.40
2022-11-17T13:15:32.243Z,13.70
2022-11-17T13:17:58.962Z,13.30
2022-11-17T13:20:25.628Z,12.90
2022-11-17T13:22:52.253Z,12.50
2022-11-17T13:25:18.867Z,12.30
2022-11-17T13:27:49.386Z,12.20
2022-11-17T13:30:21.193Z,12.30
2022-11-17T13:32:47.894Z,12.30
2022-11-17T13:35:14.609Z,12.80
2022-11-17T13:37:41.530Z,13.20
2022-11-17T13:40:08.213Z,13.40
2022-11-17T13:42:34.868Z,13.70
2022-11-17T13:45:01.541Z,13.80
2022-11-17T13:47:28.219Z,13.70
2022-11-17T13:49:54.932Z,13.70
2022-11-17T13:52:21.723Z,13.40
2022-11-17T13:54:48.461Z,13.30
2022-11-17T13:57:15.133Z,13.20
2022-11-17T13:59:41.892Z,13.50
2022-11-17T14:02:08.611Z,13.70
2022-11-17T14:04:35.269Z,13.70
2022-11-17T14:07:01.993Z,13.50
2022-11-17T14:09:28.751Z,13.40
2022-11-17T14:11:55.371Z,13.60
2022-11-17T14:14:22.020Z,12.90
2022-11-17T14:16:48.651Z,12.90
2022-11-17T14:19:15.431Z,12.90
2022-11-17T14:21:42.262Z,13.00
2022-11-17T14:24:08.899Z,13.20
2022-11-17T14:26:35.531Z,13.40
2022-11-17T14:29:02.179Z,13.60
2022-11-17T14:31:28.850Z,13.60
2022-11-17T14:33:55.543Z,13.70
2022-11-17T14:36:22.166Z,13.80
2022-11-17T14:38:48.859Z,13.60
2022-11-17T14:41:15.499Z,13.40
2022-11-17T14:43:42.175Z,13.60
2022-11-17T14:46:08.825Z,13.70
2022-11-17T14:48:35.554Z,13.80
2022-11-17T14:51:02.250Z,13.70
2022-11-17T14:53:28.941Z,13.70
2022-11-17T14:55:55.607Z,13.70
2022-11-17T14:58:22.319Z,13.70
2022-11-17T15:00:48.955Z,13.70
2022-11-17T15:03:15.677Z,13.60
2022-11-17T15:05:42.382Z,13.50
2022-11-17T15:08:09.056Z,13.40
2022-11-17T15:10:35.690Z,13.10
2022-11-17T15:13:02.347Z,12.30
2022-11-17T15:15:29.024Z,11.90
2022-11-17T15:17:55.684Z,12.20
2022-11-17T15:20:22.335Z,12.60
2022-11-17T15:22:48.963Z,11.80
2022-11-17T15:25:15.635Z,12.20
2022-11-17T15:27:42.323Z,11.90
2022-11-17T15:30:08.970Z,11.70
2022-11-17T15:32:35.646Z,11.90
2022-11-17T15:35:02.400Z,12.10
2022-11-17T15:37:29.072Z,12.20
2022-11-17T15:39:55.711Z,12.20
2022-11-17T15:42:22.348Z,12.20
2022-11-17T15:44:48.968Z,12.40
2022-11-17T15:47:15.624Z,12.40
2022-11-17T15:49:42.341Z,12.20
2022-11-17T15:52:08.955Z,12.10
2022-11-17T15:54:35.575Z,12.00
2022-11-17T15:57:02.220Z,11.90
2022-11-17T15:59:28.957Z,11.70
2022-11-17T16:01:55.606Z,11.60
2022-11-17T16:04:22.374Z,11.50
2022-11-17T16:06:48.981Z,11.50
2022-11-17T16:09:16.028Z,11.50
2022-11-17T16:11:43.082Z,11.50
2022-11-17T16:14:09.743Z,11.40
2022-11-17T16:16:36.452Z,11.40
2022-11-17T16:19:03.098Z,11.40
2022-11-17T16:21:29.735Z,11.30
2022-11-17T16:23:56.414Z,11.30
2022-11-17T16:26:23.079Z,11.50
2022-11-17T16:28:49.701Z,11.00
2022-11-17T16:31:16.345Z,10.20
2022-11-17T16:33:42.983Z,10.00
2022-11-17T16:36:09.667Z,10.10
2022-11-17T16:38:36.532Z,10.30
2022-11-17T16:41:03.190Z,10.50
2022-11-17T16:43:29.812Z,10.70
2022-11-17T16:45:56.482Z,10.70
2022-11-17T16:48:23.128Z,10.70
2022-11-17T16:50:49.804Z,10.70
2022-11-17T16:53:16.499Z,10.20
2022-11-17T16:55:43.181Z,10.20
2022-11-17T16:58:09.879Z,10.20
2022-11-17T17:00:36.553Z,10.40
2022-11-17T17:03:03.296Z,10.60
2022-11-17T17:05:29.991Z,10.70
2022-11-17T17:07:56.647Z,10.50
2022-11-17T17:10:23.261Z,9.90
2022-11-17T17:12:49.987Z,10.00
2022-11-17T17:15:16.748Z,10.00
2022-11-17T17:17:43.373Z,10.10
2022-11-17T17:20:10.010Z,10.00
2022-11-17T17:22:36.680Z,10.00
2022-11-17T17:25:03.345Z,10.00
2022-11-17T17:27:29.996Z,10.00
2022-11-17T17:29:56.766Z,10.00
2022-11-17T17:32:23.588Z,10.00
2022-11-17T17:34:50.251Z,10.00
2022-11-17T17:37:16.972Z,9.90
2022-11-17T17:39:43.603Z,9.80
2022-11-17T17:42:10.292Z,9.70
2022-11-17T17:44:36.998Z,9.90
2022-11-17T17:47:03.627Z,9.90
2022-11-17T17:49:30.474Z,9.60
2022-11-17T17:51:57.112Z,9.70
2022-11-17T17:54:23.826Z,9.80
2022-11-17T17:56:50.439Z,9.20
2022-11-17T17:59:17.350Z,8.60
2022-11-17T18:01:44.212Z,8.90
2022-11-17T18:04:15.542Z,9.20
2022-11-17T18:06:43.038Z,9.00
2022-11-17T18:09:09.715Z,8.70
2022-11-17T18:11:36.358Z,8.50
2022-11-17T18:14:03.033Z,8.80
2022-11-17T18:16:29.736Z,9.10
2022-11-17T18:18:56.427Z,9.30
2022-11-17T18:21:23.091Z,9.40
2022-11-17T18:23:49.815Z,9.30
2022-11-17T18:26:16.541Z,9.40
2022-11-17T18:28:43.248Z,9.00
2022-11-17T18:31:09.975Z,8.70
2022-11-17T18:33:36.811Z,8.70
2022-11-17T18:36:03.412Z,8.70
2022-11-17T18:38:30.084Z,8.70
2022-11-17T18:40:59.371Z,8.70
2022-11-17T18:43:26.258Z,9.00
2022-11-17T18:45:53.709Z,9.20
2022-11-17T18:48:20.359Z,9.50
2022-11-17T18:51:17.431Z,9.70
2022-11-17T18:53:33.660Z,9.60
2022-11-17T18:56:00.421Z,9.40
2022-11-17T18:58:27.122Z,9.40
2022-11-17T19:00:53.902Z,9.60
2022-11-17T19:03:20.546Z,9.70
2022-11-17T19:05:47.275Z,9.40
2022-11-17T19:08:13.928Z,8.70
2022-11-17T19:10:40.655Z,8.50
2022-11-17T19:13:07.299Z,8.90
2022-11-17T19:15:34.019Z,9.20
2022-11-17T19:18:00.648Z,9.30
2022-11-17T19:20:27.348Z,9.30
2022-11-17T19:22:54.066Z,9.40
2022-11-17T19:25:20.688Z,9.40
2022-11-17T19:27:48.609Z,9.20
2022-11-17T19:30:15.302Z,9.00
2022-11-17T19:32:41.959Z,9.10
2022-11-17T19:35:14.827Z,8.80
2022-11-17T19:37:43.726Z,8.90
2022-11-17T19:40:10.412Z,9.00
2022-11-17T19:42:37.083Z,9.00
2022-11-17T19:45:03.922Z,8.90
2022-11-17T19:47:30.578Z,8.60
2022-11-17T19:49:57.251Z,8.00
2022-11-17T19:52:23.919Z,7.80
2022-11-17T19:54:50.867Z,8.10
2022-11-17T19:57:17.559Z,8.10
2022-11-17T19:59:44.241Z,8.30
2022-11-17T20:02:11.947Z,8.30
2022-11-17T20:04:38.546Z,8.40
2022-11-17T20:07:05.314Z,8.50
2022-11-17T20:09:32.037Z,8.00
2022-11-17T20:11:58.683Z,7.70
2022-11-17T20:14:28.218Z,7.60
2022-11-17T20:16:54.908Z,7.90
2022-11-17T20:19:21.594Z,7.90
2022-11-17T20:21:48.248Z,7.80
2022-11-17T20:24:14.930Z,8.00
2022-11-17T20:26:41.564Z,8.30
2022-11-17T20:29:08.257Z,8.20
2022-11-17T20:31:35.035Z,7.70
2022-11-17T20:34:01.661Z,7.10
2022-11-17T20:36:28.332Z,7.10
2022-11-17T20:38:55.043Z,7.40
2022-11-17T20:41:21.682Z,7.70
2022-11-17T20:43:48.335Z,7.90
2022-11-17T20:46:15.037Z,8.00
2022-11-17T20:48:41.738Z,8.00
2022-11-17T20:51:08.589Z,8.10
2022-11-17T20:53:35.205Z,7.90
2022-11-17T20:56:01.820Z,8.00
2022-11-17T20:58:28.484Z,8.00
2022-11-17T21:00:55.167Z,7.90
2022-11-17T21:03:21.900Z,7.80
2022-11-17T21:05:48.590Z,7.40
2022-11-17T21:08:15.313Z,7.30
2022-11-17T21:10:41.963Z,7.20
2022-11-17T21:13:08.598Z,7.30
2022-11-17T21:15:35.270Z,7.40
2022-11-17T21:18:01.947Z,7.60
2022-11-17T21:20:28.587Z,7.80
2022-11-17T21:22:55.305Z,7.90
2022-11-17T21:25:21.989Z,7.90
2022-11-17T21:27:48.709Z,7.50
2022-11-17T21:30:15.371Z,7.80
2022-11-17T21:32:42.056Z,7.50
2022-11-17T21:35:08.779Z,7.60
2022-11-17T21:37:35.514Z,7.90
2022-11-17T21:40:02.148Z,8.00
2022-11-17T21:42:28.893Z,8.20
2022-11-17T21:44:55.577Z,8.20
2022-11-17T21:47:22.323Z,8.30
2022-11-17T21:49:48.962Z,8.20
2022-11-17T21:52:15.571Z,8.00
2022-11-17T21:54:42.215Z,7.80
2022-11-17T21:57:08.858Z,8.10
2022-11-17T21:59:35.526Z,8.40
2022-11-17T22:02:02.195Z,8.30
2022-11-17T22:04:28.895Z,8.30
2022-11-17T22:06:55.600Z,8.30
2022-11-17T22:09:22.336Z,8.40
2022-11-17T22:11:49.028Z,8.50
2022-11-17T22:14:15.639Z,8.50
2022-11-17T22:16:42.336Z,8.70
2022-11-17T22:19:09.027Z,8.70
2022-11-17T22:21:35.704Z,8.70
2022-11-17T22:24:02.367Z,8.70
2022-11-17T22:26:29.026Z,8.90
2022-11-17T22:28:55.761Z,8.40
2022-11-17T22:31:22.453Z,8.40
2022-11-17T22:33:49.099Z,8.30
2022-11-17T22:36:15.786Z,8.50
2022-11-17T22:38:42.418Z,8.30
2022-11-17T22:41:09.098Z,8.30
2022-11-17T22:43:35.837Z,8.40
2022-11-17T22:46:02.556Z,8.50
2022-11-17T22:48:29.278Z,8.40
2022-11-17T22:50:55.987Z,8.40
2022-11-17T22:53:22.723Z,8.40
2022-11-17T22:55:49.357Z,8.20
2022-11-17T22:58:16.022Z,8.20
2022-11-17T23:00:43.210Z,8.30
2022-11-17T23:03:09.900Z,8.30
2022-11-17T23:05:36.575Z,8.20
2022-11-17T23:08:09.317Z,8.10
2022-11-17T23:10:36.534Z,8.10
2022-11-17T23:13:03.218Z,8.10
2022-11-17T23:15:29.853Z,8.10
2022-11-17T23:17:56.497Z,8.00
2022-11-17T23:20:23.158Z,8.00
2022-11-17T23:22:49.793Z,7.90
2022-11-17T23:25:16.473Z,7.80
2022-11-17T23:27:43.125Z,7.80
2022-11-17T23:30:09.768Z,7.60
2022-11-17T23:32:36.548Z,7.80
2022-11-17T23:35:03.204Z,7.60
2022-11-17T23:37:29.855Z,7.40
2022-11-17T23:39:56.499Z,7.60
2022-11-17T23:42:23.158Z,7.50
2022-11-17T23:44:49.810Z,7.10
2022-11-17T23:47:16.505Z,7.30
2022-11-17T23:49:43.129Z,6.90
2022-11-17T23:52:09.852Z,6.70
2022-11-17T23:54:36.542Z,6.70
2022-11-17T23:57:03.215Z,6.70
2022-11-17T23:59:29.925Z,7.20
